sensor_id;sensor_type;location;lat;lon;timestamp;P1;durP1;ratioP1;P2;durP2;ratioP2
85038;SDS011;75366;54.588;18.456;2024-02-15T00:03:12;24.30;;;12.40;;
85038;SDS011;75366;54.588;18.456;2024-02-15T00:08:14;27.80;;;14.90;;
85038;SDS011;75366;54.588;18.456;2024-02-15T00:13:16;24.20;;;12.50;;
85038;SDS011;75366;54.588;18.456;2024-02-15T00:18:18;24.50;;;13.60;;
85038;SDS011;75366;54.588;18.456;2024-02-15T00:23:41;27.60;;;12.80;;
85038;SDS011;75366;54.588;18.456;2024-02-15T00:29:03;22.80;;;12.80;;
85038;SDS011;75366;54.588;18.456;2024-02-15T00:34:05;25.50;;;12.10;;
85038;SDS011;75366;54.588;18.456;2024-02-15T00:39:07;23.00;;;12.10;;
85038;SDS011;75366;54.588;18.456;2024-02-15T00:44:09;25.80;;;12.60;;
85038;SDS011;75366;54.588;18.456;2024-02-15T00:49:14;23.20;;;12.70;;
85038;SDS011;75366;54.588;18.456;2024-02-15T00:54:16;23.60;;;13.50;;
85038;SDS011;75366;54.588;18.456;2024-02-15T00:59:18;25.10;;;12.90;;
85038;SDS011;75366;54.588;18.456;2024-02-15T01:04:19;27.60;;;13.60;;
85038;SDS011;75366;54.588;18.456;2024-02-15T01:09:21;25.40;;;12.60;;
85038;SDS011;75366;54.588;18.456;2024-02-15T01:14:23;26.20;;;13.70;;
85038;SDS011;75366;54.588;18.456;2024-02-15T01:19:25;26.80;;;13.80;;
85038;SDS011;75366;54.588;18.456;2024-02-15T01:24:26;26.80;;;13.00;;
85038;SDS011;75366;54.588;18.456;2024-02-15T01:29:48;31.00;;;14.30;;
85038;SDS011;75366;54.588;18.456;2024-02-15T01:34:49;24.90;;;12.50;;
85038;SDS011;75366;54.588;18.456;2024-02-15T01:39:54;21.60;;;13.10;;
85038;SDS011;75366;54.588;18.456;2024-02-15T01:44:56;23.10;;;12.50;;
85038;SDS011;75366;54.588;18.456;2024-02-15T01:49:58;24.10;;;13.00;;
85038;SDS011;75366;54.588;18.456;2024-02-15T01:55:00;26.60;;;12.80;;
85038;SDS011;75366;54.588;18.456;2024-02-15T02:00:09;25.50;;;13.10;;
85038;SDS011;75366;54.588;18.456;2024-02-15T02:05:12;25.70;;;13.50;;
85038;SDS011;75366;54.588;18.456;2024-02-15T02:10:14;30.10;;;12.10;;
85038;SDS011;75366;54.588;18.456;2024-02-15T02:15:16;23.90;;;13.80;;
85038;SDS011;75366;54.588;18.456;2024-02-15T02:20:18;26.30;;;12.40;;
85038;SDS011;75366;54.588;18.456;2024-02-15T02:25:21;27.00;;;13.40;;
85038;SDS011;75366;54.588;18.456;2024-02-15T02:30:26;21.50;;;12.40;;
85038;SDS011;75366;54.588;18.456;2024-02-15T02:35:32;24.80;;;12.90;;
85038;SDS011;75366;54.588;18.456;2024-02-15T02:40:34;27.10;;;14.60;;
85038;SDS011;75366;54.588;18.456;2024-02-15T02:45:37;27.00;;;13.40;;
85038;SDS011;75366;54.588;18.456;2024-02-15T02:50:39;26.10;;;14.10;;
85038;SDS011;75366;54.588;18.456;2024-02-15T02:55:41;23.60;;;12.60;;
85038;SDS011;75366;54.588;18.456;2024-02-15T03:00:43;22.10;;;11.30;;
85038;SDS011;75366;54.588;18.456;2024-02-15T03:05:45;20.80;;;11.80;;
85038;SDS011;75366;54.588;18.456;2024-02-15T03:10:47;19.40;;;10.10;;
85038;SDS011;75366;54.588;18.456;2024-02-15T03:15:49;17.40;;;10.20;;
85038;SDS011;75366;54.588;18.456;2024-02-15T03:20:50;21.10;;;10.40;;
85038;SDS011;75366;54.588;18.456;2024-02-15T03:25:52;20.90;;;10.00;;
85038;SDS011;75366;54.588;18.456;2024-02-15T03:30:55;20.40;;;10.00;;
85038;SDS011;75366;54.588;18.456;2024-02-15T03:35:57;16.30;;;9.50;;
85038;SDS011;75366;54.588;18.456;2024-02-15T03:41:01;18.50;;;9.70;;
85038;SDS011;75366;54.588;18.456;2024-02-15T03:46:03;18.40;;;11.30;;
85038;SDS011;75366;54.588;18.456;2024-02-15T03:51:04;17.60;;;9.70;;
85038;SDS011;75366;54.588;18.456;2024-02-15T03:56:07;20.40;;;10.00;;
85038;SDS011;75366;54.588;18.456;2024-02-15T04:06:45;17.00;;;10.30;;
85038;SDS011;75366;54.588;18.456;2024-02-15T04:12:07;15.90;;;10.20;;
85038;SDS011;75366;54.588;18.456;2024-02-15T04:17:29;16.80;;;10.50;;
85038;SDS011;75366;54.588;18.456;2024-02-15T04:22:51;15.30;;;8.90;;
85038;SDS011;75366;54.588;18.456;2024-02-15T04:28:14;13.90;;;9.50;;
85038;SDS011;75366;54.588;18.456;2024-02-15T04:33:40;16.00;;;10.50;;
85038;SDS011;75366;54.588;18.456;2024-02-15T04:39:02;16.20;;;10.20;;
85038;SDS011;75366;54.588;18.456;2024-02-15T04:44:24;17.90;;;9.30;;
85038;SDS011;75366;54.588;18.456;2024-02-15T04:49:49;14.00;;;9.20;;
85038;SDS011;75366;54.588;18.456;2024-02-15T04:55:11;18.10;;;10.00;;
85038;SDS011;75366;54.588;18.456;2024-02-15T05:00:13;12.50;;;8.40;;
85038;SDS011;75366;54.588;18.456;2024-02-15T05:05:18;12.10;;;8.00;;
85038;SDS011;75366;54.588;18.456;2024-02-15T05:10:21;15.40;;;9.50;;
85038;SDS011;75366;54.588;18.456;2024-02-15T05:15:22;15.80;;;8.60;;
85038;SDS011;75366;54.588;18.456;2024-02-15T05:20:26;13.90;;;7.90;;
85038;SDS011;75366;54.588;18.456;2024-02-15T05:25:28;13.90;;;8.10;;
85038;SDS011;75366;54.588;18.456;2024-02-15T05:30:31;16.20;;;8.30;;
85038;SDS011;75366;54.588;18.456;2024-02-15T05:35:34;14.70;;;8.70;;
85038;SDS011;75366;54.588;18.456;2024-02-15T05:40:37;10.40;;;7.40;;
85038;SDS011;75366;54.588;18.456;2024-02-15T05:45:39;14.90;;;8.30;;
85038;SDS011;75366;54.588;18.456;2024-02-15T05:50:40;11.40;;;7.40;;
85038;SDS011;75366;54.588;18.456;2024-02-15T05:55:43;11.40;;;7.00;;
85038;SDS011;75366;54.588;18.456;2024-02-15T06:00:46;14.30;;;7.10;;
85038;SDS011;75366;54.588;18.456;2024-02-15T06:05:51;12.50;;;8.70;;
85038;SDS011;75366;54.588;18.456;2024-02-15T06:10:53;12.10;;;7.30;;
85038;SDS011;75366;54.588;18.456;2024-02-15T06:15:55;12.50;;;8.40;;
85038;SDS011;75366;54.588;18.456;2024-02-15T06:20:57;12.40;;;7.70;;
85038;SDS011;75366;54.588;18.456;2024-02-15T06:26:00;12.40;;;8.60;;
85038;SDS011;75366;54.588;18.456;2024-02-15T06:31:03;11.20;;;8.20;;
85038;SDS011;75366;54.588;18.456;2024-02-15T06:36:24;10.70;;;7.90;;
85038;SDS011;75366;54.588;18.456;2024-02-15T06:41:44;12.60;;;8.30;;
85038;SDS011;75366;54.588;18.456;2024-02-15T06:46:46;10.80;;;8.00;;
85038;SDS011;75366;54.588;18.456;2024-02-15T06:51:48;12.90;;;6.80;;
85038;SDS011;75366;54.588;18.456;2024-02-15T06:56:51;10.30;;;7.00;;
85038;SDS011;75366;54.588;18.456;2024-02-15T07:01:55;12.60;;;8.20;;
85038;SDS011;75366;54.588;18.456;2024-02-15T07:06:57;13.00;;;7.40;;
85038;SDS011;75366;54.588;18.456;2024-02-15T07:11:59;14.50;;;7.70;;
85038;SDS011;75366;54.588;18.456;2024-02-15T07:17:01;10.40;;;6.40;;
85038;SDS011;75366;54.588;18.456;2024-02-15T07:22:02;10.20;;;7.60;;
85038;SDS011;75366;54.588;18.456;2024-02-15T07:27:05;10.50;;;7.10;;
85038;SDS011;75366;54.588;18.456;2024-02-15T07:32:06;11.80;;;7.30;;
85038;SDS011;75366;54.588;18.456;2024-02-15T07:37:09;12.10;;;8.00;;
85038;SDS011;75366;54.588;18.456;2024-02-15T07:42:12;12.20;;;8.30;;
85038;SDS011;75366;54.588;18.456;2024-02-15T07:47:14;12.80;;;8.20;;
85038;SDS011;75366;54.588;18.456;2024-02-15T07:52:16;12.50;;;8.10;;
85038;SDS011;75366;54.588;18.456;2024-02-15T07:57:18;12.50;;;7.50;;
85038;SDS011;75366;54.588;18.456;2024-02-15T08:02:20;12.90;;;8.90;;
85038;SDS011;75366;54.588;18.456;2024-02-15T08:07:24;12.80;;;8.90;;
85038;SDS011;75366;54.588;18.456;2024-02-15T08:12:26;13.90;;;7.90;;
85038;SDS011;75366;54.588;18.456;2024-02-15T08:17:28;12.20;;;8.10;;
85038;SDS011;75366;54.588;18.456;2024-02-15T08:22:30;14.40;;;7.90;;
85038;SDS011;75366;54.588;18.456;2024-02-15T08:27:32;15.00;;;8.60;;
85038;SDS011;75366;54.588;18.456;2024-02-15T08:32:35;13.90;;;7.30;;
85038;SDS011;75366;54.588;18.456;2024-02-15T08:37:38;13.70;;;7.70;;
85038;SDS011;75366;54.588;18.456;2024-02-15T08:42:41;10.30;;;7.50;;
85038;SDS011;75366;54.588;18.456;2024-02-15T08:47:43;12.90;;;8.70;;
85038;SDS011;75366;54.588;18.456;2024-02-15T08:52:47;13.20;;;7.80;;
85038;SDS011;75366;54.588;18.456;2024-02-15T08:57:48;13.20;;;8.00;;
85038;SDS011;75366;54.588;18.456;2024-02-15T09:02:50;11.10;;;8.20;;
85038;SDS011;75366;54.588;18.456;2024-02-15T09:07:53;11.90;;;8.60;;
85038;SDS011;75366;54.588;18.456;2024-02-15T09:12:55;14.90;;;8.90;;
85038;SDS011;75366;54.588;18.456;2024-02-15T09:17:57;12.10;;;7.70;;
85038;SDS011;75366;54.588;18.456;2024-02-15T09:22:59;11.30;;;7.60;;
85038;SDS011;75366;54.588;18.456;2024-02-15T09:28:09;9.20;;;6.50;;
85038;SDS011;75366;54.588;18.456;2024-02-15T09:33:11;10.90;;;6.70;;
85038;SDS011;75366;54.588;18.456;2024-02-15T09:38:12;11.90;;;7.50;;
85038;SDS011;75366;54.588;18.456;2024-02-15T09:43:17;11.10;;;7.40;;
85038;SDS011;75366;54.588;18.456;2024-02-15T09:48:19;13.80;;;8.40;;
85038;SDS011;75366;54.588;18.456;2024-02-15T09:53:26;10.10;;;6.90;;
85038;SDS011;75366;54.588;18.456;2024-02-15T09:58:30;9.00;;;6.90;;
85038;SDS011;75366;54.588;18.456;2024-02-15T10:03:37;9.40;;;6.30;;
85038;SDS011;75366;54.588;18.456;2024-02-15T10:08:41;11.50;;;7.70;;
85038;SDS011;75366;54.588;18.456;2024-02-15T10:13:43;11.90;;;7.80;;
85038;SDS011;75366;54.588;18.456;2024-02-15T10:24:06;9.40;;;7.70;;
85038;SDS011;75366;54.588;18.456;2024-02-15T10:29:10;11.20;;;8.80;;
85038;SDS011;75366;54.588;18.456;2024-02-15T10:34:13;10.80;;;7.30;;
85038;SDS011;75366;54.588;18.456;2024-02-15T10:39:16;11.00;;;7.80;;
85038;SDS011;75366;54.588;18.456;2024-02-15T10:44:21;10.20;;;7.80;;
85038;SDS011;75366;54.588;18.456;2024-02-15T10:49:24;10.30;;;7.60;;
85038;SDS011;75366;54.588;18.456;2024-02-15T10:54:35;10.40;;;8.00;;
85038;SDS011;75366;54.588;18.456;2024-02-15T10:59:53;11.10;;;6.80;;
85038;SDS011;75366;54.588;18.456;2024-02-15T11:04:59;12.70;;;6.90;;
85038;SDS011;75366;54.588;18.456;2024-02-15T11:10:06;8.80;;;7.30;;
85038;SDS011;75366;54.588;18.456;2024-02-15T11:15:09;12.80;;;8.30;;
85038;SDS011;75366;54.588;18.456;2024-02-15T11:25:34;14.50;;;8.10;;
85038;SDS011;75366;54.588;18.456;2024-02-15T11:30:38;10.90;;;7.10;;
85038;SDS011;75366;54.588;18.456;2024-02-15T11:35:43;10.90;;;8.00;;
85038;SDS011;75366;54.588;18.456;2024-02-15T11:41:09;13.20;;;8.40;;
85038;SDS011;75366;54.588;18.456;2024-02-15T11:46:14;13.60;;;8.10;;
85038;SDS011;75366;54.588;18.456;2024-02-15T11:51:29;12.10;;;8.80;;
85038;SDS011;75366;54.588;18.456;2024-02-15T12:01:51;15.70;;;8.50;;
85038;SDS011;75366;54.588;18.456;2024-02-15T12:07:13;14.90;;;8.80;;
85038;SDS011;75366;54.588;18.456;2024-02-15T12:12:34;12.90;;;8.30;;
85038;SDS011;75366;54.588;18.456;2024-02-15T12:17:54;14.80;;;9.10;;
85038;SDS011;75366;54.588;18.456;2024-02-15T12:23:14;14.00;;;9.40;;
85038;SDS011;75366;54.588;18.456;2024-02-15T12:28:19;12.90;;;8.90;;
85038;SDS011;75366;54.588;18.456;2024-02-15T12:33:21;13.80;;;9.00;;
85038;SDS011;75366;54.588;18.456;2024-02-15T12:38:23;14.70;;;8.70;;
85038;SDS011;75366;54.588;18.456;2024-02-15T12:43:24;10.90;;;8.20;;
85038;SDS011;75366;54.588;18.456;2024-02-15T12:48:27;12.90;;;8.80;;
85038;SDS011;75366;54.588;18.456;2024-02-15T12:53:29;13.80;;;8.40;;
85038;SDS011;75366;54.588;18.456;2024-02-15T12:58:30;12.20;;;8.80;;
85038;SDS011;75366;54.588;18.456;2024-02-15T13:03:32;14.00;;;8.10;;
85038;SDS011;75366;54.588;18.456;2024-02-15T13:08:35;12.60;;;7.70;;
85038;SDS011;75366;54.588;18.456;2024-02-15T13:13:37;10.90;;;6.60;;
85038;SDS011;75366;54.588;18.456;2024-02-15T13:18:38;10.30;;;6.30;;
85038;SDS011;75366;54.588;18.456;2024-02-15T13:23:41;9.50;;;6.60;;
85038;SDS011;75366;54.588;18.456;2024-02-15T13:28:42;12.20;;;7.20;;
85038;SDS011;75366;54.588;18.456;2024-02-15T13:33:45;11.50;;;6.70;;
85038;SDS011;75366;54.588;18.456;2024-02-15T13:38:49;8.40;;;5.30;;
85038;SDS011;75366;54.588;18.456;2024-02-15T13:43:52;9.00;;;6.40;;
85038;SDS011;75366;54.588;18.456;2024-02-15T13:48:54;9.20;;;6.10;;
85038;SDS011;75366;54.588;18.456;2024-02-15T13:53:56;8.90;;;5.60;;
85038;SDS011;75366;54.588;18.456;2024-02-15T13:58:58;8.80;;;5.90;;
85038;SDS011;75366;54.588;18.456;2024-02-15T14:04:05;9.10;;;6.30;;
85038;SDS011;75366;54.588;18.456;2024-02-15T14:09:07;8.70;;;5.90;;
85038;SDS011;75366;54.588;18.456;2024-02-15T14:14:08;10.00;;;6.80;;
85038;SDS011;75366;54.588;18.456;2024-02-15T14:19:10;15.50;;;8.40;;
85038;SDS011;75366;54.588;18.456;2024-02-15T14:24:13;11.30;;;6.90;;
85038;SDS011;75366;54.588;18.456;2024-02-15T14:29:16;12.90;;;6.80;;
85038;SDS011;75366;54.588;18.456;2024-02-15T14:34:22;12.50;;;6.80;;
85038;SDS011;75366;54.588;18.456;2024-02-15T14:39:26;9.90;;;6.60;;
85038;SDS011;75366;54.588;18.456;2024-02-15T14:44:27;16.80;;;8.00;;
85038;SDS011;75366;54.588;18.456;2024-02-15T14:49:29;11.50;;;6.20;;
85038;SDS011;75366;54.588;18.456;2024-02-15T14:54:31;12.10;;;7.00;;
85038;SDS011;75366;54.588;18.456;2024-02-15T14:59:34;10.40;;;6.40;;
85038;SDS011;75366;54.588;18.456;2024-02-15T15:04:36;11.60;;;7.00;;
85038;SDS011;75366;54.588;18.456;2024-02-15T15:09:58;11.50;;;5.80;;
85038;SDS011;75366;54.588;18.456;2024-02-15T15:15:19;9.60;;;5.90;;
85038;SDS011;75366;54.588;18.456;2024-02-15T15:20:22;8.00;;;5.40;;
85038;SDS011;75366;54.588;18.456;2024-02-15T15:25:26;6.90;;;4.40;;
85038;SDS011;75366;54.588;18.456;2024-02-15T15:30:31;7.30;;;5.30;;
85038;SDS011;75366;54.588;18.456;2024-02-15T15:35:32;7.80;;;4.90;;
85038;SDS011;75366;54.588;18.456;2024-02-15T15:40:35;8.20;;;5.40;;
85038;SDS011;75366;54.588;18.456;2024-02-15T15:45:37;7.70;;;5.70;;
85038;SDS011;75366;54.588;18.456;2024-02-15T15:50:40;9.40;;;6.40;;
85038;SDS011;75366;54.588;18.456;2024-02-15T15:55:44;9.50;;;6.60;;
85038;SDS011;75366;54.588;18.456;2024-02-15T16:00:46;11.10;;;6.10;;
85038;SDS011;75366;54.588;18.456;2024-02-15T16:05:48;10.40;;;6.20;;
85038;SDS011;75366;54.588;18.456;2024-02-15T16:10:50;10.40;;;7.40;;
85038;SDS011;75366;54.588;18.456;2024-02-15T16:15:52;11.50;;;7.70;;
85038;SDS011;75366;54.588;18.456;2024-02-15T16:20:56;12.10;;;7.40;;
85038;SDS011;75366;54.588;18.456;2024-02-15T16:25:58;8.50;;;6.00;;
85038;SDS011;75366;54.588;18.456;2024-02-15T16:30:59;9.70;;;5.70;;
85038;SDS011;75366;54.588;18.456;2024-02-15T16:36:01;8.80;;;6.40;;
85038;SDS011;75366;54.588;18.456;2024-02-15T16:41:03;10.10;;;7.20;;
85038;SDS011;75366;54.588;18.456;2024-02-15T16:46:05;10.90;;;7.30;;
85038;SDS011;75366;54.588;18.456;2024-02-15T16:51:06;11.90;;;7.20;;
85038;SDS011;75366;54.588;18.456;2024-02-15T16:56:17;12.60;;;7.90;;
85038;SDS011;75366;54.588;18.456;2024-02-15T17:01:20;13.20;;;8.40;;
85038;SDS011;75366;54.588;18.456;2024-02-15T17:11:24;14.30;;;10.90;;
85038;SDS011;75366;54.588;18.456;2024-02-15T17:16:26;13.40;;;8.50;;
85038;SDS011;75366;54.588;18.456;2024-02-15T17:21:29;16.50;;;9.70;;
85038;SDS011;75366;54.588;18.456;2024-02-15T17:26:33;17.60;;;11.00;;
85038;SDS011;75366;54.588;18.456;2024-02-15T17:31:35;16.90;;;10.30;;
85038;SDS011;75366;54.588;18.456;2024-02-15T17:36:38;19.00;;;12.50;;
85038;SDS011;75366;54.588;18.456;2024-02-15T17:41:44;21.60;;;13.10;;
85038;SDS011;75366;54.588;18.456;2024-02-15T17:46:46;20.50;;;12.90;;
85038;SDS011;75366;54.588;18.456;2024-02-15T17:51:48;17.10;;;11.80;;
85038;SDS011;75366;54.588;18.456;2024-02-15T17:56:49;18.90;;;11.20;;
85038;SDS011;75366;54.588;18.456;2024-02-15T18:01:51;18.50;;;10.90;;
85038;SDS011;75366;54.588;18.456;2024-02-15T18:06:53;19.30;;;13.40;;
85038;SDS011;75366;54.588;18.456;2024-02-15T18:12:01;22.50;;;11.70;;
85038;SDS011;75366;54.588;18.456;2024-02-15T18:17:04;17.10;;;10.70;;
85038;SDS011;75366;54.588;18.456;2024-02-15T18:22:06;17.70;;;12.30;;
85038;SDS011;75366;54.588;18.456;2024-02-15T18:27:07;19.40;;;12.10;;
85038;SDS011;75366;54.588;18.456;2024-02-15T18:32:09;20.00;;;11.20;;
85038;SDS011;75366;54.588;18.456;2024-02-15T18:37:13;18.90;;;11.80;;
85038;SDS011;75366;54.588;18.456;2024-02-15T18:42:15;17.30;;;11.20;;
85038;SDS011;75366;54.588;18.456;2024-02-15T18:47:18;16.70;;;11.00;;
85038;SDS011;75366;54.588;18.456;2024-02-15T18:52:19;20.20;;;11.70;;
85038;SDS011;75366;54.588;18.456;2024-02-15T18:57:21;16.50;;;10.10;;
85038;SDS011;75366;54.588;18.456;2024-02-15T19:02:24;17.30;;;12.10;;
85038;SDS011;75366;54.588;18.456;2024-02-15T19:07:27;19.70;;;11.60;;
85038;SDS011;75366;54.588;18.456;2024-02-15T19:12:29;18.50;;;11.50;;
85038;SDS011;75366;54.588;18.456;2024-02-15T19:17:33;17.00;;;11.90;;
85038;SDS011;75366;54.588;18.456;2024-02-15T19:22:42;16.20;;;11.20;;
85038;SDS011;75366;54.588;18.456;2024-02-15T19:27:49;12.90;;;9.50;;
85038;SDS011;75366;54.588;18.456;2024-02-15T19:32:51;16.00;;;9.90;;
85038;SDS011;75366;54.588;18.456;2024-02-15T19:37:53;16.60;;;10.50;;
85038;SDS011;75366;54.588;18.456;2024-02-15T19:42:54;13.90;;;10.00;;
85038;SDS011;75366;54.588;18.456;2024-02-15T19:47:57;13.50;;;8.70;;
85038;SDS011;75366;54.588;18.456;2024-02-15T19:52:59;19.80;;;10.80;;
85038;SDS011;75366;54.588;18.456;2024-02-15T19:58:20;14.70;;;9.60;;
85038;SDS011;75366;54.588;18.456;2024-02-15T20:03:22;14.90;;;11.00;;
85038;SDS011;75366;54.588;18.456;2024-02-15T20:08:27;20.30;;;11.00;;
85038;SDS011;75366;54.588;18.456;2024-02-15T20:13:30;13.00;;;9.10;;
85038;SDS011;75366;54.588;18.456;2024-02-15T20:18:34;15.60;;;11.30;;
85038;SDS011;75366;54.588;18.456;2024-02-15T20:23:44;16.30;;;9.80;;
85038;SDS011;75366;54.588;18.456;2024-02-15T20:29:39;14.80;;;8.90;;
85038;SDS011;75366;54.588;18.456;2024-02-15T20:34:40;16.00;;;10.10;;
85038;SDS011;75366;54.588;18.456;2024-02-15T20:39:54;16.80;;;10.00;;
85038;SDS011;75366;54.588;18.456;2024-02-15T20:44:56;16.50;;;10.30;;
85038;SDS011;75366;54.588;18.456;2024-02-15T20:49:59;13.10;;;9.30;;
85038;SDS011;75366;54.588;18.456;2024-02-15T20:55:02;14.50;;;9.40;;
85038;SDS011;75366;54.588;18.456;2024-02-15T21:00:06;14.00;;;9.40;;
85038;SDS011;75366;54.588;18.456;2024-02-15T21:05:15;13.70;;;10.20;;
85038;SDS011;75366;54.588;18.456;2024-02-15T21:10:17;14.00;;;9.00;;
85038;SDS011;75366;54.588;18.456;2024-02-15T21:15:19;13.80;;;10.20;;
85038;SDS011;75366;54.588;18.456;2024-02-15T21:20:21;13.00;;;9.20;;
85038;SDS011;75366;54.588;18.456;2024-02-15T21:25:23;14.30;;;9.20;;
85038;SDS011;75366;54.588;18.456;2024-02-15T21:30:25;13.40;;;8.90;;
85038;SDS011;75366;54.588;18.456;2024-02-15T21:35:29;15.70;;;9.70;;
85038;SDS011;75366;54.588;18.456;2024-02-15T21:40:31;16.10;;;9.30;;
85038;SDS011;75366;54.588;18.456;2024-02-15T21:45:34;13.60;;;9.30;;
85038;SDS011;75366;54.588;18.456;2024-02-15T21:50:35;13.80;;;9.00;;
85038;SDS011;75366;54.588;18.456;2024-02-15T21:55:37;15.20;;;9.50;;
85038;SDS011;75366;54.588;18.456;2024-02-15T22:00:53;15.00;;;8.70;;
85038;SDS011;75366;54.588;18.456;2024-02-15T22:06:24;15.60;;;10.30;;
85038;SDS011;75366;54.588;18.456;2024-02-15T22:11:26;14.00;;;9.30;;
85038;SDS011;75366;54.588;18.456;2024-02-15T22:16:28;15.20;;;9.20;;
85038;SDS011;75366;54.588;18.456;2024-02-15T22:21:29;19.00;;;9.60;;
85038;SDS011;75366;54.588;18.456;2024-02-15T22:26:33;16.70;;;9.50;;
85038;SDS011;75366;54.588;18.456;2024-02-15T22:31:35;14.40;;;8.90;;
85038;SDS011;75366;54.588;18.456;2024-02-15T22:36:37;14.90;;;9.90;;
85038;SDS011;75366;54.588;18.456;2024-02-15T22:41:39;14.40;;;9.60;;
85038;SDS011;75366;54.588;18.456;2024-02-15T22:46:44;15.70;;;9.30;;
85038;SDS011;75366;54.588;18.456;2024-02-15T22:51:49;17.50;;;10.10;;
85038;SDS011;75366;54.588;18.456;2024-02-15T22:56:51;14.90;;;9.30;;
85038;SDS011;75366;54.588;18.456;2024-02-15T23:01:53;17.40;;;9.80;;
85038;SDS011;75366;54.588;18.456;2024-02-15T23:06:55;15.70;;;10.20;;
85038;SDS011;75366;54.588;18.456;2024-02-15T23:11:57;19.80;;;11.10;;
85038;SDS011;75366;54.588;18.456;2024-02-15T23:17:00;16.70;;;10.70;;
85038;SDS011;75366;54.588;18.456;2024-02-15T23:22:02;18.90;;;10.80;;
85038;SDS011;75366;54.588;18.456;2024-02-15T23:27:03;19.40;;;11.90;;
85038;SDS011;75366;54.588;18.456;2024-02-15T23:32:07;20.00;;;12.40;;
85038;SDS011;75366;54.588;18.456;2024-02-15T23:37:09;19.00;;;11.50;;
85038;SDS011;75366;54.588;18.456;2024-02-15T23:42:29;21.50;;;13.20;;
85038;SDS011;75366;54.588;18.456;2024-02-15T23:47:32;18.00;;;11.10;;
85038;SDS011;75366;54.588;18.456;2024-02-15T23:52:33;19.80;;;12.20;;
85038;SDS011;75366;54.588;18.456;2024-02-15T23:57:37;21.80;;;10.80;;
